Time;durP1;ratioP1;P1;durP2;ratioP2;P2;SDS_P1;SDS_P2;PMS_P1;PMS_P2;Temp;Humidity;BMP_temperature;BMP_pressure;BME280_temperature;BME280_humidity;BME280_pressure;Samples;Min_cycle;Max_cycle;Signal;HPM_P1;HPM_P2
2022/03/02 00:01:39;;;;;;;27.58;9.60;;;5.30;99.90;;;;;;5025027;28;20037;-72
2022/03/02 00:04:05;;;;;;;17.60;7.93;;;5.30;99.90;;;;;;5024460;28;20052;-72
2022/03/02 00:06:31;;;;;;;22.00;9.50;;;5.30;99.90;;;;;;5024593;28;20037;-72
2022/03/02 00:08:58;;;;;;;23.08;8.68;;;5.30;99.90;;;;;;5024954;28;20072;-73
2022/03/02 00:11:24;;;;;;;18.05;6.78;;;5.30;99.90;;;;;;5010503;28;20034;-72
2022/03/02 00:13:50;;;;;;;21.05;7.72;;;5.20;99.90;;;;;;5005292;28;20030;-73
2022/03/02 00:16:17;;;;;;;26.58;9.70;;;5.30;99.90;;;;;;5005211;28;20042;-73
2022/03/02 00:18:43;;;;;;;19.55;8.68;;;5.20;99.90;;;;;;5006814;28;20034;-73
2022/03/02 00:21:10;;;;;;;25.45;8.73;;;5.20;99.90;;;;;;5008951;28;20018;-72
2022/03/02 00:23:35;;;;;;;25.60;8.73;;;5.30;99.90;;;;;;5009001;28;20105;-73
2022/03/02 00:26:02;;;;;;;22.67;8.98;;;5.20;99.90;;;;;;5008766;28;20390;-75
2022/03/02 00:28:27;;;;;;;25.10;7.88;;;5.20;99.90;;;;;;5018681;28;20032;-72
2022/03/02 00:30:54;;;;;;;24.13;8.32;;;5.20;99.90;;;;;;5028751;28;20030;-73
2022/03/02 00:33:20;;;;;;;14.60;7.43;;;5.20;99.90;;;;;;5028109;28;20041;-73
2022/03/02 00:35:45;;;;;;;34.20;8.18;;;5.10;99.90;;;;;;5010969;28;20099;-73
2022/03/02 00:38:11;;;;;;;19.80;8.32;;;5.20;99.90;;;;;;5010475;28;20106;-72
2022/03/02 00:40:38;;;;;;;18.10;8.50;;;5.20;99.90;;;;;;5028038;28;20030;-73
2022/03/02 00:43:04;;;;;;;18.05;7.07;;;5.20;99.90;;;;;;5028388;28;20033;-72
2022/03/02 00:45:31;;;;;;;22.95;8.25;;;5.20;99.90;;;;;;5027964;28;20022;-72
2022/03/02 00:47:58;;;;;;;26.25;8.82;;;5.10;99.90;;;;;;5028270;28;20034;-72
2022/03/02 00:50:24;;;;;;;31.27;8.32;;;5.10;99.90;;;;;;5028541;28;20026;-73
2022/03/02 00:52:50;;;;;;;22.40;8.23;;;5.10;99.90;;;;;;5027592;28;20084;-73
2022/03/02 00:55:19;;;;;;;21.20;7.75;;;5.10;99.90;;;;;;5028119;28;20102;-74
2022/03/02 00:57:46;;;;;;;22.13;8.57;;;5.10;99.90;;;;;;5027847;28;20037;-72
2022/03/02 01:00:12;;;;;;;27.50;9.75;;;5.30;99.90;;;;;;5027626;28;20086;-72
2022/03/02 01:02:38;;;;;;;24.00;9.07;;;5.10;99.90;;;;;;5028012;28;20018;-72
2022/03/02 01:05:05;;;;;;;21.80;7.40;;;5.20;99.90;;;;;;5027636;28;20033;-72
2022/03/02 01:07:31;;;;;;;17.85;7.75;;;5.10;99.90;;;;;;5009669;28;20081;-72
2022/03/02 01:09:58;;;;;;;16.58;7.32;;;5.10;99.90;;;;;;5026189;28;20026;-72
2022/03/02 01:12:23;;;;;;;25.55;9.25;;;5.20;99.90;;;;;;5027583;28;20036;-74
2022/03/02 01:14:50;;;;;;;18.52;7.68;;;5.10;99.90;;;;;;5027100;28;20081;-71
2022/03/02 01:17:15;;;;;;;20.35;7.60;;;5.00;99.90;;;;;;5027667;28;20056;-72
2022/03/02 01:19:41;;;;;;;22.63;8.25;;;5.10;99.90;;;;;;5027491;28;20034;-73
2022/03/02 01:22:06;;;;;;;15.00;7.10;;;5.00;99.90;;;;;;5027315;28;20036;-72
2022/03/02 01:24:32;;;;;;;21.70;8.50;;;5.00;99.90;;;;;;5027578;28;20081;-72
2022/03/02 01:27:01;;;;;;;29.23;10.02;;;5.00;99.90;;;;;;5027632;28;20018;-71
2022/03/02 01:29:30;;;;;;;24.73;8.02;;;5.00;99.90;;;;;;5008581;28;20089;-72
2022/03/02 01:31:57;;;;;;;21.30;8.45;;;4.90;99.90;;;;;;5009743;28;20386;-72
2022/03/02 01:34:23;;;;;;;19.35;8.70;;;4.90;99.90;;;;;;5009628;28;20033;-72
2022/03/02 01:36:49;;;;;;;25.67;8.45;;;4.90;99.90;;;;;;5027161;28;20394;-72
2022/03/02 01:39:15;;;;;;;21.25;9.27;;;4.90;99.90;;;;;;5009458;28;20483;-72
2022/03/02 01:41:40;;;;;;;20.45;7.32;;;4.90;99.90;;;;;;5027033;28;20057;-72
2022/03/02 01:44:06;;;;;;;16.00;8.10;;;4.90;99.90;;;;;;5026641;28;20551;-71
2022/03/02 01:46:32;;;;;;;29.63;8.13;;;4.90;99.90;;;;;;5027128;28;20052;-71
2022/03/02 01:48:58;;;;;;;22.17;8.73;;;4.80;99.90;;;;;;5026995;28;20033;-73
2022/03/02 01:51:23;;;;;;;26.70;8.43;;;4.90;99.90;;;;;;5027227;28;20041;-73
2022/03/02 01:53:49;;;;;;;15.20;7.93;;;4.80;99.90;;;;;;5026949;28;20049;-72
2022/03/02 01:56:15;;;;;;;22.25;9.57;;;4.80;99.90;;;;;;5026742;28;20034;-72
2022/03/02 01:58:41;;;;;;;19.10;8.82;;;4.70;99.90;;;;;;5026163;28;20037;-73
2022/03/02 02:01:07;;;;;;;28.63;9.57;;;4.70;99.90;;;;;;5026802;28;20045;-72
2022/03/02 02:03:34;;;;;;;22.00;8.27;;;4.70;99.90;;;;;;5008599;28;20025;-72
2022/03/02 02:06:01;;;;;;;21.58;8.23;;;4.60;99.90;;;;;;5026719;28;20038;-71
2022/03/02 02:08:28;;;;;;;25.42;8.98;;;4.70;99.90;;;;;;5025627;28;20030;-73
2022/03/02 02:10:56;;;;;;;20.02;9.13;;;4.70;99.90;;;;;;5026896;28;20036;-74
2022/03/02 02:13:23;;;;;;;31.17;8.48;;;4.70;99.90;;;;;;5026753;28;20445;-72
2022/03/02 02:15:49;;;;;;;47.28;8.95;;;4.60;99.90;;;;;;5026375;28;20042;-73
2022/03/02 02:18:14;;;;;;;23.20;8.73;;;4.60;99.90;;;;;;5021598;28;20095;-72
2022/03/02 02:20:40;;;;;;;22.50;7.85;;;4.60;99.90;;;;;;5012246;28;20026;-73
2022/03/02 02:23:07;;;;;;;22.08;7.75;;;4.60;99.90;;;;;;5025907;28;20034;-73
2022/03/02 02:25:33;;;;;;;26.75;9.15;;;4.60;99.90;;;;;;5025023;28;20038;-71
2022/03/02 02:28:00;;;;;;;18.73;7.72;;;4.60;99.90;;;;;;5025803;28;20038;-72
2022/03/02 02:30:28;;;;;;;24.83;8.85;;;4.60;99.90;;;;;;5008263;28;20044;-73
2022/03/02 02:32:53;;;;;;;20.42;8.40;;;4.60;99.90;;;;;;5008799;28;20042;-73
2022/03/02 02:35:19;;;;;;;23.42;8.45;;;4.60;99.90;;;;;;5026157;28;20097;-72
2022/03/02 02:37:48;;;;;;;17.25;6.57;;;4.60;99.90;;;;;;5025641;28;20048;-74
2022/03/02 02:40:17;;;;;;;23.48;8.65;;;4.60;99.90;;;;;;5008530;28;20044;-73
2022/03/02 02:42:47;;;;;;;22.20;8.32;;;4.60;99.90;;;;;;5026024;28;20061;-72
2022/03/02 02:45:17;;;;;;;24.42;10.20;;;4.60;99.90;;;;;;5025104;28;20025;-72
2022/03/02 02:47:46;;;;;;;20.60;8.43;;;4.60;99.90;;;;;;5026040;28;20058;-73
2022/03/02 02:50:27;;;;;;;23.88;8.13;;;4.60;99.90;;;;;;5007886;28;20026;-73
2022/03/02 02:52:54;;;;;;;26.73;8.43;;;4.50;99.90;;;;;;5025795;28;20061;-73
2022/03/02 02:55:22;;;;;;;18.35;8.18;;;4.60;99.90;;;;;;5008222;28;20030;-73
2022/03/02 02:57:48;;;;;;;21.65;8.80;;;4.60;99.90;;;;;;5025499;28;20058;-72
2022/03/02 03:00:16;;;;;;;27.48;9.18;;;4.60;99.90;;;;;;5025676;28;20069;-72
2022/03/02 03:02:44;;;;;;;27.08;7.38;;;4.70;99.90;;;;;;5025763;28;20026;-73
2022/03/02 03:05:11;;;;;;;21.55;7.80;;;4.60;99.90;;;;;;5025402;28;20033;-75
2022/03/02 03:07:37;;;;;;;15.32;7.38;;;4.50;99.90;;;;;;5025236;28;20042;-72
2022/03/02 03:10:04;;;;;;;20.35;8.07;;;4.50;99.90;;;;;;5025791;28;20494;-75
2022/03/02 03:12:30;;;;;;;24.10;8.63;;;4.50;99.90;;;;;;5007574;28;20038;-71
2022/03/02 03:14:55;;;;;;;19.38;8.48;;;4.50;99.90;;;;;;5025795;28;20117;-72
2022/03/02 03:17:21;;;;;;;23.63;7.68;;;4.50;99.90;;;;;;5025661;28;20041;-73
2022/03/02 03:19:46;;;;;;;18.45;7.05;;;4.40;99.90;;;;;;5025005;28;20449;-72
2022/03/02 03:22:12;;;;;;;22.08;7.57;;;4.40;99.90;;;;;;5025356;28;20033;-72
2022/03/02 03:24:37;;;;;;;20.95;8.85;;;4.40;99.90;;;;;;5025404;28;20056;-71
2022/03/02 03:27:04;;;;;;;18.67;7.80;;;4.40;99.90;;;;;;5025120;28;20029;-74
2022/03/02 03:29:34;;;;;;;18.83;7.93;;;4.40;99.90;;;;;;5025437;28;20037;-72
2022/03/02 03:32:00;;;;;;;22.42;7.95;;;4.40;99.90;;;;;;5025436;28;20026;-71
2022/03/02 03:34:26;;;;;;;22.98;8.68;;;4.40;99.90;;;;;;5024772;28;20028;-73
2022/03/02 03:36:52;;;;;;;21.33;8.00;;;4.30;99.90;;;;;;5024635;28;20034;-72
2022/03/02 03:39:18;;;;;;;25.75;8.77;;;4.30;99.90;;;;;;5025110;28;20077;-73
2022/03/02 03:41:44;;;;;;;20.08;7.90;;;4.30;99.90;;;;;;5007239;28;20034;-71
2022/03/02 03:44:09;;;;;;;26.67;8.27;;;4.30;99.90;;;;;;5025198;28;20030;-72
2022/03/02 03:46:35;;;;;;;28.38;8.13;;;4.30;99.90;;;;;;5024892;28;20033;-73
2022/03/02 03:49:01;;;;;;;34.03;9.63;;;4.30;99.90;;;;;;5024951;28;20057;-72
2022/03/02 03:51:27;;;;;;;19.00;7.72;;;4.20;99.90;;;;;;5025052;28;20033;-72
2022/03/02 03:53:53;;;;;;;18.35;7.65;;;4.20;99.90;;;;;;5024385;28;20034;-72
2022/03/02 03:56:18;;;;;;;20.70;8.25;;;4.10;99.90;;;;;;5007357;28;20029;-72
2022/03/02 03:58:44;;;;;;;23.10;8.30;;;4.10;99.90;;;;;;5024954;28;20044;-72
2022/03/02 04:01:10;;;;;;;21.65;8.00;;;4.10;99.90;;;;;;5006983;28;20053;-72
2022/03/02 04:03:39;;;;;;;24.85;8.75;;;4.10;99.90;;;;;;5024848;28;20045;-71
2022/03/02 04:06:05;;;;;;;23.45;8.18;;;4.00;99.90;;;;;;5006786;28;20030;-72
2022/03/02 04:08:31;;;;;;;27.08;8.30;;;3.90;99.90;;;;;;5024851;28;20033;-72
2022/03/02 04:10:57;;;;;;;25.23;8.63;;;3.90;99.90;;;;;;5025021;28;20038;-73
2022/03/02 04:13:23;;;;;;;26.02;9.00;;;3.80;99.90;;;;;;5024918;28;20029;-72
2022/03/02 04:15:48;;;;;;;24.58;8.40;;;3.70;99.90;;;;;;5024803;28;20026;-73
2022/03/02 04:18:14;;;;;;;20.48;7.45;;;3.70;99.90;;;;;;5024736;28;20576;-72
2022/03/02 04:20:40;;;;;;;24.50;9.30;;;3.60;99.90;;;;;;5024759;28;20037;-73
2022/03/02 04:23:06;;;;;;;25.20;8.52;;;3.60;99.90;;;;;;5024434;28;20026;-72
2022/03/02 04:25:32;;;;;;;30.83;10.15;;;3.50;99.90;;;;;;5024937;28;20127;-72
2022/03/02 04:27:58;;;;;;;19.35;7.93;;;3.50;99.90;;;;;;5024791;28;20022;-72
2022/03/02 04:30:24;;;;;;;17.73;7.70;;;3.40;99.90;;;;;;5024588;28;20092;-73
2022/03/02 04:32:50;;;;;;;28.52;9.20;;;3.30;99.90;;;;;;5007079;28;20032;-72
2022/03/02 04:35:15;;;;;;;27.45;9.15;;;3.30;99.90;;;;;;5024463;28;20073;-74
2022/03/02 04:37:41;;;;;;;21.13;9.55;;;3.20;99.90;;;;;;5006763;28;20034;-73
2022/03/02 04:40:10;;;;;;;27.30;9.23;;;3.20;99.90;;;;;;5024655;28;20088;-72
2022/03/02 04:42:36;;;;;;;16.50;7.57;;;3.10;99.90;;;;;;5024223;28;20025;-74
2022/03/02 04:45:03;;;;;;;21.02;9.10;;;3.10;99.90;;;;;;5006854;28;20038;-72
2022/03/02 04:47:28;;;;;;;26.95;10.18;;;3.00;99.90;;;;;;5024689;28;20545;-72
2022/03/02 04:50:00;;;;;;;20.35;7.72;;;3.00;99.90;;;;;;5024403;28;20030;-72
2022/03/02 04:52:28;;;;;;;25.33;8.63;;;3.00;99.90;;;;;;5024474;28;20034;-73
2022/03/02 04:55:05;;;;;;;23.15;9.38;;;3.00;99.90;;;;;;5024784;28;20029;-73
2022/03/02 04:58:01;;;;;;;22.30;9.02;;;3.00;99.90;;;;;;5023388;28;20038;-73
2022/03/02 05:00:33;;;;;;;25.45;9.38;;;2.90;99.90;;;;;;5003289;28;20046;-73
2022/03/02 05:03:01;;;;;;;26.27;8.68;;;2.90;99.90;;;;;;5024382;28;20022;-74
2022/03/02 05:05:29;;;;;;;25.80;10.95;;;2.80;99.90;;;;;;5025589;28;20029;-73
2022/03/02 05:07:55;;;;;;;27.73;9.30;;;2.80;99.90;;;;;;5010088;28;20046;-72
2022/03/02 05:10:22;;;;;;;20.45;8.20;;;2.80;99.90;;;;;;5027867;28;20040;-72
2022/03/02 05:12:48;;;;;;;29.38;8.05;;;2.80;99.90;;;;;;5027441;28;20042;-74
2022/03/02 05:15:15;;;;;;;29.70;9.18;;;2.80;99.90;;;;;;5027805;28;20433;-73
2022/03/02 05:17:42;;;;;;;23.58;9.32;;;2.70;99.90;;;;;;5027580;28;20022;-73
2022/03/02 05:20:10;;;;;;;24.65;8.55;;;2.70;99.90;;;;;;5009426;28;20101;-72
2022/03/02 05:22:36;;;;;;;24.17;9.77;;;2.70;99.90;;;;;;5009822;28;20056;-73
2022/03/02 05:25:03;;;;;;;21.58;9.73;;;2.60;99.90;;;;;;5027746;28;20030;-72
2022/03/02 05:27:29;;;;;;;30.55;9.85;;;2.60;99.90;;;;;;5009672;28;20048;-74
2022/03/02 05:29:54;;;;;;;20.38;8.10;;;2.60;99.90;;;;;;5027736;28;20037;-72
2022/03/02 05:32:20;;;;;;;22.58;9.30;;;2.60;99.90;;;;;;5027127;28;20037;-72
2022/03/02 05:34:46;;;;;;;24.88;9.90;;;2.50;99.90;;;;;;5027319;28;20022;-73
2022/03/02 05:37:11;;;;;;;26.33;8.65;;;2.50;99.90;;;;;;5027300;28;20037;-72
2022/03/02 05:39:37;;;;;;;23.35;8.75;;;2.50;99.90;;;;;;5026882;28;20113;-73
2022/03/02 05:42:04;;;;;;;24.58;9.65;;;2.40;99.90;;;;;;5027184;28;20466;-73
2022/03/02 05:44:29;;;;;;;19.88;8.68;;;2.40;99.90;;;;;;5027394;28;20026;-73
2022/03/02 05:46:55;;;;;;;23.67;9.02;;;2.40;99.90;;;;;;5009535;28;20034;-72
2022/03/02 05:49:21;;;;;;;35.38;9.98;;;2.40;99.90;;;;;;5009394;28;20026;-72
2022/03/02 05:51:46;;;;;;;26.35;9.52;;;2.30;99.90;;;;;;5009016;28;20061;-72
2022/03/02 05:54:12;;;;;;;26.83;10.05;;;2.20;99.90;;;;;;5026669;28;20034;-72
2022/03/02 05:56:39;;;;;;;31.35;9.85;;;2.20;99.90;;;;;;5026885;28;20049;-73
2022/03/02 05:59:06;;;;;;;20.70;9.43;;;2.20;99.90;;;;;;5026868;28;20073;-74
2022/03/02 06:01:33;;;;;;;24.65;9.02;;;2.20;99.90;;;;;;5008657;28;20060;-74
2022/03/02 06:03:59;;;;;;;24.27;9.45;;;2.20;99.90;;;;;;5009268;28;20030;-74
2022/03/02 06:06:24;;;;;;;24.13;9.95;;;2.20;99.90;;;;;;5026513;28;20040;-73
2022/03/02 06:08:50;;;;;;;26.83;10.35;;;2.20;99.90;;;;;;5021006;28;20030;-73
2022/03/02 06:11:16;;;;;;;21.00;9.38;;;2.10;99.90;;;;;;5004707;28;20060;-71
2022/03/02 06:13:42;;;;;;;20.77;7.85;;;2.20;99.90;;;;;;5020009;28;20026;-72
2022/03/02 06:16:08;;;;;;;17.73;7.90;;;2.10;99.90;;;;;;5025726;28;20025;-74
2022/03/02 06:18:35;;;;;;;30.75;10.23;;;2.10;99.90;;;;;;5026514;28;20541;-72
2022/03/02 06:21:03;;;;;;;21.52;7.45;;;2.10;99.90;;;;;;5026166;28;20141;-72
2022/03/02 06:23:31;;;;;;;22.30;9.25;;;2.10;99.90;;;;;;5007957;28;20049;-72
2022/03/02 06:25:57;;;;;;;25.17;8.77;;;2.10;99.90;;;;;;5025715;28;20084;-72
2022/03/02 06:28:27;;;;;;;23.35;9.98;;;2.10;99.90;;;;;;5022748;28;20033;-72
2022/03/02 06:30:57;;;;;;;26.92;9.10;;;2.10;99.90;;;;;;5016192;28;20103;-71
2022/03/02 06:33:22;;;;;;;30.23;9.27;;;2.10;99.90;;;;;;5020855;28;20065;-70
2022/03/02 06:35:48;;;;;;;27.42;10.25;;;2.10;99.90;;;;;;5012712;28;20085;-71
2022/03/02 06:38:14;;;;;;;20.10;8.15;;;2.10;99.90;;;;;;5010106;28;20042;-72
2022/03/02 06:40:48;;;;;;;34.85;9.75;;;2.20;99.90;;;;;;5022834;28;20408;-70
2022/03/02 06:43:20;;;;;;;27.73;9.20;;;2.20;99.90;;;;;;5025121;28;20022;-72
2022/03/02 06:45:57;;;;;;;26.90;9.23;;;2.20;99.90;;;;;;5019482;28;20489;-70
2022/03/02 06:48:31;;;;;;;28.48;10.80;;;2.20;99.90;;;;;;5024831;28;20464;-70
2022/03/02 06:51:01;;;;;;;21.67;9.40;;;2.20;99.90;;;;;;5025731;28;20072;-71
2022/03/02 06:53:33;;;;;;;22.20;8.55;;;2.20;99.90;;;;;;5008086;28;20034;-70
2022/03/02 06:56:06;;;;;;;29.52;9.45;;;2.10;99.90;;;;;;5025326;28;20038;-72
2022/03/02 06:58:48;;;;;;;30.65;9.98;;;2.20;99.90;;;;;;5024174;28;20038;-71
2022/03/02 07:01:20;;;;;;;22.77;9.80;;;2.20;99.90;;;;;;5006215;28;20034;-70
2022/03/02 07:03:49;;;;;;;32.95;10.43;;;2.30;99.90;;;;;;5023865;28;20033;-70
2022/03/02 07:06:15;;;;;;;31.83;10.85;;;2.30;99.90;;;;;;5024462;28;20157;-70
2022/03/02 07:08:45;;;;;;;30.25;10.65;;;2.40;99.90;;;;;;5000884;28;20038;-72
2022/03/02 07:11:12;;;;;;;29.27;9.57;;;2.40;99.90;;;;;;5017066;28;20037;-71
2022/03/02 07:13:37;;;;;;;25.15;10.07;;;2.40;99.90;;;;;;5009677;28;20092;-71
2022/03/02 07:16:04;;;;;;;32.28;10.00;;;2.50;99.90;;;;;;5016691;28;20034;-70
2022/03/02 07:18:31;;;;;;;20.95;9.18;;;2.50;99.90;;;;;;5005407;28;20038;-70
2022/03/02 07:20:58;;;;;;;25.67;9.40;;;2.60;99.90;;;;;;5022933;28;20026;-70
2022/03/02 07:23:29;;;;;;;39.15;10.80;;;2.70;99.90;;;;;;5024909;28;20037;-70
2022/03/02 07:25:58;;;;;;;27.85;9.30;;;2.70;99.90;;;;;;5025371;28;20034;-71
2022/03/02 07:28:28;;;;;;;21.23;9.15;;;2.80;99.90;;;;;;5023736;28;20061;-69
2022/03/02 07:30:57;;;;;;;24.95;9.55;;;2.90;99.90;;;;;;5006896;28;20021;-70
2022/03/02 07:33:25;;;;;;;25.40;9.90;;;3.00;99.90;;;;;;5025107;28;20397;-70
2022/03/02 07:36:00;;;;;;;28.70;9.88;;;3.10;99.90;;;;;;5024580;28;20025;-71
2022/03/02 07:38:25;;;;;;;44.53;11.52;;;3.20;99.90;;;;;;5020579;28;20102;-69
2022/03/02 07:40:52;;;;;;;26.10;9.10;;;3.30;99.90;;;;;;5011839;28;20023;-70
2022/03/02 07:43:20;;;;;;;24.92;10.13;;;3.50;99.90;;;;;;5024569;28;20053;-70
2022/03/02 07:45:46;;;;;;;26.50;9.88;;;3.70;99.90;;;;;;5021764;28;20030;-70
2022/03/02 07:48:11;;;;;;;21.17;9.07;;;4.00;99.90;;;;;;5024909;28;20470;-70
2022/03/02 07:50:40;;;;;;;22.27;9.25;;;4.30;99.90;;;;;;5024361;28;20044;-70
2022/03/02 07:53:20;;;;;;;23.20;9.02;;;4.50;99.90;;;;;;5024851;28;20026;-70
2022/03/02 07:55:47;;;;;;;31.20;10.68;;;4.70;99.90;;;;;;5024010;28;20508;-71
2022/03/02 07:58:15;;;;;;;29.52;10.32;;;4.90;99.90;;;;;;5020252;28;20398;-72
2022/03/02 08:00:41;;;;;;;24.55;9.38;;;5.00;99.90;;;;;;5020960;28;20041;-71
2022/03/02 08:03:09;;;;;;;27.33;8.85;;;5.20;99.90;;;;;;5021839;28;20030;-71
2022/03/02 08:05:35;;;;;;;21.83;8.75;;;5.30;99.90;;;;;;5024824;28;20093;-72
2022/03/02 08:08:01;;;;;;;19.48;8.57;;;5.40;99.90;;;;;;5006498;28;20414;-71
2022/03/02 08:10:27;;;;;;;20.77;9.32;;;5.50;99.90;;;;;;5015759;28;21019;-73
2022/03/02 08:12:53;;;;;;;24.50;8.02;;;5.60;99.90;;;;;;5007503;28;20437;-72
2022/03/02 08:15:20;;;;;;;22.50;8.98;;;5.60;99.90;;;;;;5006006;28;20033;-72
2022/03/02 08:17:47;;;;;;;27.50;10.13;;;5.80;99.90;;;;;;4992317;28;20026;-71
2022/03/02 08:20:13;;;;;;;19.10;8.15;;;5.80;99.90;;;;;;5022634;28;20034;-71
2022/03/02 08:22:44;;;;;;;17.25;8.20;;;5.90;99.90;;;;;;5008221;28;20022;-72
2022/03/02 08:25:11;;;;;;;26.08;9.20;;;6.10;99.90;;;;;;5003988;28;20026;-73
2022/03/02 08:27:42;;;;;;;22.67;10.02;;;6.20;99.90;;;;;;5018656;28;20444;-72
2022/03/02 08:30:09;;;;;;;24.42;9.75;;;6.50;99.90;;;;;;5024134;28;20037;-71
2022/03/02 08:32:40;;;;;;;20.65;9.65;;;6.70;99.90;;;;;;4998151;28;20035;-72
2022/03/02 08:35:06;;;;;;;29.70;9.45;;;6.80;99.90;;;;;;5010392;28;20042;-71
2022/03/02 08:37:41;;;;;;;24.27;9.55;;;6.90;99.90;;;;;;5005058;28;20022;-72
2022/03/02 08:40:14;;;;;;;19.48;8.07;;;7.20;99.90;;;;;;4969370;28;20054;-70
2022/03/02 08:42:40;;;;;;;24.77;8.38;;;7.30;99.90;;;;;;5004907;28;20076;-71
2022/03/02 08:45:07;;;;;;;18.92;8.38;;;7.40;99.90;;;;;;4999087;28;20117;-71
2022/03/02 08:47:34;;;;;;;16.73;6.90;;;7.60;99.90;;;;;;5000467;28;20034;-72
2022/03/02 08:50:00;;;;;;;20.40;8.43;;;7.80;99.90;;;;;;5007226;28;20435;-72
2022/03/02 08:52:29;;;;;;;21.50;8.93;;;8.00;99.90;;;;;;5007743;28;20030;-72
2022/03/02 08:54:56;;;;;;;17.80;8.18;;;8.10;99.90;;;;;;5007762;28;20634;-72
2022/03/02 08:57:23;;;;;;;31.05;8.65;;;8.20;99.90;;;;;;4989081;28;20061;-71
2022/03/02 08:59:54;;;;;;;19.98;9.15;;;8.50;99.90;;;;;;5007801;28;20046;-72
2022/03/02 09:02:24;;;;;;;22.45;9.15;;;8.40;99.90;;;;;;5008053;28;20036;-73
2022/03/02 09:04:50;;;;;;;22.70;8.43;;;8.50;99.90;;;;;;4999636;28;20038;-71
2022/03/02 09:07:18;;;;;;;15.90;7.65;;;8.60;99.90;;;;;;4997068;28;20056;-72
2022/03/02 09:09:44;;;;;;;26.00;8.45;;;8.70;99.90;;;;;;5001528;28;20045;-71
2022/03/02 09:12:10;;;;;;;18.17;8.52;;;8.90;99.90;;;;;;5003008;28;20089;-70
2022/03/02 09:14:41;;;;;;;18.80;7.03;;;9.00;99.90;;;;;;5006294;28;20054;-72
2022/03/02 09:17:07;;;;;;;13.63;6.07;;;8.90;99.90;;;;;;4988532;28;20018;-71
2022/03/02 09:19:33;;;;;;;21.50;7.65;;;9.00;99.90;;;;;;4986267;28;20047;-71
2022/03/02 09:21:59;;;;;;;17.55;7.05;;;9.10;99.90;;;;;;5007458;28;20027;-72
2022/03/02 09:24:29;;;;;;;15.48;7.68;;;9.20;99.90;;;;;;5007843;28;20045;-72
2022/03/02 09:26:58;;;;;;;21.08;7.70;;;9.20;99.90;;;;;;5005755;28;20045;-71
2022/03/02 09:29:34;;;;;;;16.95;7.45;;;9.30;99.90;;;;;;5003284;28;20030;-71
2022/03/02 09:32:04;;;;;;;20.00;8.27;;;9.50;99.90;;;;;;4986078;28;20027;-73
2022/03/02 09:34:33;;;;;;;17.42;7.47;;;9.70;99.90;;;;;;5000663;28;20120;-71
2022/03/02 09:37:00;;;;;;;26.92;8.30;;;9.80;99.90;;;;;;4995114;28;20026;-71
2022/03/02 09:39:26;;;;;;;23.25;7.55;;;9.90;99.90;;;;;;5005961;28;20046;-70
2022/03/02 09:42:01;;;;;;;22.33;8.65;;;9.90;99.90;;;;;;4992107;28;20038;-71
2022/03/02 09:44:44;;;;;;;16.67;7.13;;;10.00;99.90;;;;;;5005954;28;20026;-73
2022/03/02 09:47:27;;;;;;;13.93;6.30;;;10.00;99.90;;;;;;5006457;28;20049;-71
2022/03/02 09:49:57;;;;;;;19.50;8.18;;;10.20;99.90;;;;;;4989650;28;20066;-71
2022/03/02 09:52:24;;;;;;;18.05;7.32;;;10.20;99.90;;;;;;5006088;28;20027;-73
2022/03/02 09:54:58;;;;;;;19.88;7.53;;;10.20;99.90;;;;;;5000668;28;20043;-72
2022/03/02 09:57:24;;;;;;;27.73;8.60;;;10.40;99.90;;;;;;5005037;28;20038;-72
2022/03/02 09:59:55;;;;;;;17.98;7.53;;;10.50;99.90;;;;;;5006991;28;20050;-71
2022/03/02 10:02:37;;;;;;;16.67;7.53;;;10.50;99.90;;;;;;5006029;28;20160;-72
2022/03/02 10:05:24;;;;;;;22.83;8.18;;;10.50;99.90;;;;;;5001371;28;20022;-71
2022/03/02 10:07:56;;;;;;;16.48;7.47;;;10.60;99.90;;;;;;4997560;28;20148;-71
2022/03/02 10:10:23;;;;;;;17.63;8.05;;;10.80;99.90;;;;;;5006453;28;20030;-71
2022/03/02 10:12:56;;;;;;;21.70;8.00;;;10.80;99.90;;;;;;4989097;28;20034;-72
2022/03/02 10:15:22;;;;;;;19.77;8.40;;;11.00;99.90;;;;;;5006568;28;20178;-73
2022/03/02 10:17:51;;;;;;;15.50;7.35;;;11.10;99.90;;;;;;5006512;28;20055;-71
2022/03/02 10:20:30;;;;;;;22.10;7.97;;;11.10;99.90;;;;;;5006108;28;20038;-72
2022/03/02 10:23:11;;;;;;;20.60;7.43;;;11.20;99.90;;;;;;5005035;28;20122;-72
2022/03/02 10:26:06;;;;;;;20.30;7.82;;;11.40;99.90;;;;;;5002676;28;20035;-71
2022/03/02 10:28:42;;;;;;;22.70;7.68;;;11.60;99.90;;;;;;5006016;28;20081;-73
2022/03/02 10:31:32;;;;;;;25.85;8.02;;;11.60;99.90;;;;;;4985400;28;20027;-72
2022/03/02 10:34:16;;;;;;;18.85;7.03;;;11.70;99.90;;;;;;4986418;28;20030;-73
2022/03/02 10:36:45;;;;;;;18.75;7.85;;;11.70;99.90;;;;;;4985403;28;20053;-72
2022/03/02 10:39:29;;;;;;;20.00;7.25;;;11.70;99.90;;;;;;4986659;28;20070;-72
2022/03/02 10:42:03;;;;;;;18.02;7.15;;;11.80;99.90;;;;;;4968867;28;20368;-71
2022/03/02 10:45:00;;;;;;;18.45;7.57;;;11.90;99.90;;;;;;4995801;28;20076;-71
2022/03/02 10:47:30;;;;;;;16.55;7.28;;;12.10;99.90;;;;;;4949963;28;20051;-72
2022/03/02 10:50:00;;;;;;;21.38;7.60;;;12.10;99.90;;;;;;4997151;28;20045;-72
2022/03/02 10:52:29;;;;;;;15.52;7.88;;;12.30;99.90;;;;;;4992964;28;20038;-72
2022/03/02 10:55:03;;;;;;;18.40;7.30;;;12.70;99.90;;;;;;5000452;28;20034;-72
2022/03/02 10:57:34;;;;;;;17.88;7.70;;;13.10;99.90;;;;;;4994978;28;20034;-74
2022/03/02 11:00:14;;;;;;;21.38;7.22;;;13.20;99.90;;;;;;4978911;28;20050;-73
2022/03/02 11:02:42;;;;;;;19.30;7.35;;;13.30;99.90;;;;;;4997916;28;20050;-71
2022/03/02 11:05:13;;;;;;;17.90;7.78;;;13.40;99.90;;;;;;4997929;28;20029;-72
2022/03/02 11:07:40;;;;;;;19.05;8.38;;;13.40;99.90;;;;;;4994711;28;20130;-72
2022/03/02 11:10:12;;;;;;;20.70;8.05;;;13.60;99.90;;;;;;4999746;28;20023;-72
2022/03/02 11:12:43;;;;;;;17.77;8.45;;;13.90;99.90;;;;;;5001447;28;20069;-73
2022/03/02 11:15:09;;;;;;;16.48;7.28;;;14.10;99.90;;;;;;5001347;28;20026;-72
2022/03/02 11:17:41;;;;;;;19.88;8.55;;;14.10;99.90;;;;;;4977854;28;20038;-71
2022/03/02 11:20:09;;;;;;;19.38;8.82;;;14.20;99.90;;;;;;5000971;28;20042;-72
2022/03/02 11:22:36;;;;;;;15.48;7.32;;;14.50;99.90;;;;;;5004299;28;20030;-72
2022/03/02 11:25:04;;;;;;;17.42;7.82;;;14.70;99.90;;;;;;4989909;28;20094;-73
2022/03/02 11:27:41;;;;;;;18.38;7.35;;;14.80;99.90;;;;;;4999200;28;20131;-72
2022/03/02 11:30:13;;;;;;;18.23;7.75;;;14.90;99.90;;;;;;4987359;28;20034;-72
2022/03/02 11:32:45;;;;;;;19.10;7.85;;;15.00;99.90;;;;;;5002816;28;20034;-72
2022/03/02 11:35:14;;;;;;;20.73;7.63;;;15.30;99.90;;;;;;4996293;28;20022;-70
2022/03/02 11:37:41;;;;;;;17.15;8.02;;;15.30;99.90;;;;;;4996959;28;20026;-73
2022/03/02 11:40:10;;;;;;;19.08;6.95;;;15.50;99.90;;;;;;5002463;28;20106;-73
2022/03/02 11:42:38;;;;;;;23.38;7.18;;;15.50;99.90;;;;;;4999245;28;20034;-72
2022/03/02 11:45:06;;;;;;;23.02;8.65;;;15.70;99.90;;;;;;4998384;28;20027;-71
2022/03/02 11:47:37;;;;;;;16.00;7.10;;;16.10;99.90;;;;;;4999111;28;20027;-72
2022/03/02 11:50:06;;;;;;;20.83;7.05;;;16.40;99.90;;;;;;4995150;28;20030;-73
2022/03/02 11:52:34;;;;;;;14.80;7.13;;;16.60;99.90;;;;;;4998000;28;20023;-73
2022/03/02 11:55:12;;;;;;;18.00;8.15;;;16.60;99.90;;;;;;4978689;28;20023;-72
2022/03/02 11:57:43;;;;;;;18.55;7.30;;;16.60;99.90;;;;;;4996516;28;20031;-71
2022/03/02 12:00:16;;;;;;;17.38;7.10;;;16.70;99.90;;;;;;4998626;28;20038;-72
2022/03/02 12:02:50;;;;;;;17.13;7.18;;;16.70;99.90;;;;;;4995578;28;20026;-70
2022/03/02 12:05:18;;;;;;;20.23;8.10;;;16.80;99.90;;;;;;4995823;28;20023;-71
2022/03/02 12:07:47;;;;;;;17.30;7.88;;;16.90;99.90;;;;;;4995955;28;20105;-71
2022/03/02 12:10:17;;;;;;;18.05;7.22;;;17.00;99.90;;;;;;5004013;28;20113;-71
2022/03/02 12:12:44;;;;;;;16.58;7.65;;;16.70;99.90;;;;;;5004187;28;20129;-72
2022/03/02 12:15:10;;;;;;;20.17;7.38;;;16.90;99.90;;;;;;5007878;28;20065;-71
2022/03/02 12:17:37;;;;;;;23.55;8.80;;;17.10;99.90;;;;;;5008875;28;20037;-71
2022/03/02 12:20:02;;;;;;;19.70;8.57;;;17.40;99.90;;;;;;5004159;28;20133;-74
2022/03/02 12:22:38;;;;;;;14.30;7.22;;;17.60;99.90;;;;;;4988907;28;20050;-71
2022/03/02 12:25:06;;;;;;;18.27;8.20;;;17.70;99.90;;;;;;4989435;28;20027;-70
2022/03/02 12:27:32;;;;;;;21.63;9.02;;;17.90;99.90;;;;;;4993921;28;20038;-70
2022/03/02 12:30:04;;;;;;;16.73;7.47;;;18.10;99.90;;;;;;4991486;28;20045;-71
2022/03/02 12:32:34;;;;;;;20.05;8.60;;;18.30;99.90;;;;;;5000864;28;20493;-72
2022/03/02 12:35:03;;;;;;;15.65;7.57;;;18.50;99.90;;;;;;5002450;28;20034;-70
2022/03/02 12:37:30;;;;;;;21.92;8.57;;;18.40;99.90;;;;;;5007734;28;20082;-70
2022/03/02 12:39:56;;;;;;;23.50;7.90;;;18.30;99.90;;;;;;5008742;28;20046;-70
2022/03/02 12:42:22;;;;;;;16.20;7.82;;;18.30;99.90;;;;;;5008213;28;20030;-71
2022/03/02 12:44:52;;;;;;;16.65;7.80;;;18.10;99.80;;;;;;5004435;28;20053;-71
2022/03/02 12:47:19;;;;;;;21.40;7.78;;;18.00;99.90;;;;;;5007587;28;20045;-72
2022/03/02 12:49:50;;;;;;;17.52;8.00;;;18.10;99.90;;;;;;5007057;28;20058;-72